cubair logo

about hxfCubAir Flight
Where old school is still cool!

Pleasure flying is fun! Cub Air Flight was founded for the purpose of attracting and exposing interested prospective pilots to the fun of flight... while doing so at an affordable cost. All primary flight training is done in the historic Piper J3 Cub, an airplane in which many of our grandfathers learned to fly.

We use the docile Cub, a tail wheel airplane, because it not only truly teaches a student the basics of safe flight but it is also a fun airplane to fly. Imagine yourself with one hand on the control stick and feet on the rudder pedals, flying with the door open and watching the countryside pass below you while smelling the freshly cut hayfields. There is no other feeling or sensation like it.

Every flight must meet three goals: it must be fun, it must be challenging, and it must be safe. If one truly wants to learn to fly and acquire the best flight skills, then Cub Air Flight is the place to start.

Find Us Here!

Hartford Municipal

Airport (KHXF)
4200 Highway U
Hartford, WI 53027

Our Staff

Steve Krog
Jamie Weber

West Bend Weather

[Source: ADDS]
METAR
KETB 210915Z AUTO 01006KT 10SM OVC007 18/18 A2973 RMK AO2 =
TAF

Waukesha Weather

[Source: ADDS]
METAR
KUES 210915Z AUTO 34008KT 10SM SCT013 BKN019 OVC032 18/17 A2972 RMK AO2 =
TAF
KUES 210831Z 2109/2206 36007KT P6SM OVC010 FM211700 35013G21KT P6SM VCSH OVC010 FM212000 35012KT 6SM -SHRA BKN020 FM220100 36012G20KT P6SM OVC030 FM220300 35012KT P6SM OVC010 =

Juneau Weather

[Source: ADDS]
METAR
KUNU 210915Z AUTO 34008KT 7SM OVC007 20/19 A2975 RMK AO2 T01950190 =
TAF

Fond Du Lac Weather

[Source: ADDS]
METAR
KFLD 210853Z AUTO 03015G23KT 10SM OVC013 21/18 A2975 RMK AO2 SLP071 T02110183 53006 =
TAF